Bethel, PA (19507)

6:39 PM EST on November 26, 2014 (GMT -0500)
North of | Change Station
CLOSE
Current Station
Personal Weather Station
Location: Lebanon, PA
Elevation: 540 ft
Nearby Weather Stations

Elev 540 ft 40.39 °N, 76.42 °W | Updated 4 minutes ago

Snow
Snow
33.4 °F
Feels Like 27 °F
N
8.0
Wind Variable Wind from NNW
Gusts 8.0 mph

Today
High -- | Low -- °F
--% Chance of Precip.
Yesterday
High -- | Low -- °F
Precip. -- in
7:03 AM 4:40 PM
Waxing Crescent, 23% visible
Pressure 29.94 in
Visibility 7.0 miles
Clouds Overcast 1400 ft
Windchill 27 °F
Dew Point 31 °F
Humidity 92%
Rainfall 0.29 in
Snow Depth Not available.
UV 0 out of 12
Pollen .10 out of 12
Air Quality Not available.
Flu Activity Not available.
SPECI KMUI 262312Z AUTO 34009G16KT 300V360 7SM -SN OVC014 01/00 A2994 RMK AO2 CIG 014V019 $

More Conditions Fewer Conditions

Pressure 29.94 in
Visibility 7.0 miles
Clouds Overcast 1400 ft
Windchill 27 °F
Dew Point 31 °F
Humidity 92%
Rainfall 0.29 in
Snow Depth Not available.
UV 0 out of 12
Pollen .10 out of 12
Air Quality Not available.
Flu Activity Not available.
SPECI KMUI 262312Z AUTO 34009G16KT 300V360 7SM -SN OVC014 01/00 A2994 RMK AO2 CIG 014V019 $

More Conditions Fewer Conditions

10-Day Weather Forecast

Almanac

Astronomy

Nov. 26, 2014 Rise Set
Actual Time
Civil Twilight
Nautical Twilight
Astronomical Twilight
Moon
Length of Visible Light
Length of Day
Tomorrow will be .
, % of the Moon is Illuminated

Today's Extremes

State Highs State Lows

Community

WunderPhotos

Upload Photos

1,773,919 photos uploaded!

WunderBlogs® & News

Nearby

Air Quality

  Air Quality AQ Index Pollutant
Not available.

Snow Depth

Station Depth Elevation

Earthquake Activity

City Distance Mag. Time & Date
Minimum magnitude displayed is 2.5.

Coastal Water Temperatures

Place Temperature

Nearby Weather Stations